createdAt,value
2018-08-10T00:01:39.371Z,1.50
2018-08-10T00:04:08.017Z,1.67
2018-08-10T00:06:36.261Z,1.60
2018-08-10T00:09:06.914Z,1.30
2018-08-10T00:11:34.985Z,1.60
2018-08-10T00:14:10.120Z,1.90
2018-08-10T00:16:46.597Z,1.47
2018-08-10T00:19:19.866Z,1.60
2018-08-10T00:21:50.013Z,1.80
2018-08-10T00:24:18.170Z,1.67
2018-08-10T00:26:49.195Z,1.73
2018-08-10T00:29:17.374Z,1.63
2018-08-10T00:31:50.593Z,2.00
2018-08-10T00:34:21.512Z,1.90
2018-08-10T00:36:49.577Z,1.93
2018-08-10T00:39:19.734Z,1.80
2018-08-10T00:41:47.852Z,2.70
2018-08-10T00:44:18.653Z,2.53
2018-08-10T00:46:47.108Z,2.30
2018-08-10T00:49:15.155Z,2.70
2018-08-10T00:51:46.191Z,3.07
2018-08-10T00:54:14.486Z,2.60
2018-08-10T00:56:42.660Z,2.50
2018-08-10T00:59:24.571Z,2.90
2018-08-10T01:01:56.199Z,2.50
2018-08-10T01:04:29.391Z,2.60
2018-08-10T01:06:57.484Z,2.40
2018-08-10T01:09:30.416Z,2.50
2018-08-10T01:11:59.369Z,2.63
2018-08-10T01:14:34.682Z,2.63
2018-08-10T01:17:05.826Z,2.67
2018-08-10T01:19:34.327Z,2.80
2018-08-10T01:22:02.670Z,2.73
2018-08-10T01:24:30.801Z,2.60
2018-08-10T01:27:05.044Z,3.17
2018-08-10T01:29:38.253Z,2.90
2018-08-10T01:32:06.444Z,2.87
2018-08-10T01:34:34.535Z,2.37
2018-08-10T01:37:07.691Z,2.20
2018-08-10T01:39:35.782Z,2.10
2018-08-10T01:42:09.062Z,2.30
2018-08-10T01:44:44.420Z,2.30
2018-08-10T01:47:16.550Z,2.40
2018-08-10T01:49:46.735Z,2.90
2018-08-10T01:52:14.857Z,2.80
2018-08-10T01:54:49.218Z,2.80
2018-08-10T01:57:22.475Z,2.43
2018-08-10T01:59:53.481Z,2.70
2018-08-10T02:02:26.656Z,2.60
2018-08-10T02:04:57.533Z,2.53
2018-08-10T02:07:25.855Z,2.30
2018-08-10T02:10:00.215Z,2.13
2018-08-10T02:12:35.398Z,2.00
2018-08-10T02:15:06.439Z,1.53
2018-08-10T02:17:34.511Z,1.30
2018-08-10T02:20:07.337Z,1.30
2018-08-10T02:22:35.558Z,1.40
2018-08-10T02:25:10.229Z,1.50
2018-08-10T02:27:41.267Z,1.43
2018-08-10T02:30:15.067Z,1.00
2018-08-10T02:32:49.004Z,1.30
2018-08-10T02:35:19.189Z,1.03
2018-08-10T02:37:47.306Z,1.13
2018-08-10T02:40:18.533Z,0.93
2018-08-10T02:42:51.069Z,1.10
2018-08-10T02:45:23.348Z,0.90
2018-08-10T02:47:51.504Z,0.80
2018-08-10T02:50:19.647Z,0.70
2018-08-10T02:52:52.037Z,0.60
2018-08-10T02:55:31.081Z,0.60
2018-08-10T02:57:59.221Z,0.60
2018-08-10T03:00:34.100Z,0.80
2018-08-10T03:03:02.124Z,0.70
2018-08-10T03:05:37.300Z,0.50
2018-08-10T03:08:09.847Z,0.80
2018-08-10T03:10:42.953Z,0.90
2018-08-10T03:13:11.243Z,0.77
2018-08-10T03:15:39.273Z,0.60
2018-08-10T03:18:12.470Z,0.70
2018-08-10T03:20:42.595Z,0.60
2018-08-10T03:23:10.678Z,1.07
2018-08-10T03:25:43.909Z,0.93
2018-08-10T03:28:12.027Z,0.80
2018-08-10T03:30:49.698Z,0.70
2018-08-10T03:33:18.075Z,0.90
2018-08-10T03:35:46.168Z,0.97
2018-08-10T03:38:20.562Z,1.03
2018-08-10T03:40:50.803Z,0.80
2018-08-10T03:43:20.821Z,0.90
2018-08-10T03:45:54.126Z,1.10
2018-08-10T03:48:25.139Z,0.80
2018-08-10T03:50:55.505Z,1.00
2018-08-10T03:53:23.576Z,1.10
2018-08-10T03:55:54.489Z,1.10
2018-08-10T03:58:22.800Z,1.20
2018-08-10T04:00:50.838Z,1.00
2018-08-10T04:03:26.305Z,1.17
2018-08-10T04:06:01.873Z,0.97
2018-08-10T04:08:36.246Z,1.40
2018-08-10T04:11:16.047Z,1.13
2018-08-10T04:13:44.102Z,1.50
2018-08-10T04:16:18.558Z,1.87
2018-08-10T04:18:50.979Z,1.13
2018-08-10T04:21:21.889Z,1.10
2018-08-10T04:23:50.246Z,1.30
2018-08-10T04:26:26.861Z,1.40
2018-08-10T04:28:54.988Z,1.60
2018-08-10T04:31:29.429Z,1.70
2018-08-10T04:34:04.009Z,2.20
2018-08-10T04:36:38.408Z,2.80
2018-08-10T04:39:09.319Z,2.33
2018-08-10T04:41:37.398Z,2.67
2018-08-10T04:44:17.138Z,3.20
2018-08-10T04:46:45.204Z,3.20
2018-08-10T04:49:19.672Z,2.50
2018-08-10T04:51:54.039Z,2.70
2018-08-10T04:54:36.057Z,3.07
2018-08-10T04:57:04.537Z,2.80
2018-08-10T04:59:32.788Z,2.33
2018-08-10T05:02:00.906Z,2.20
2018-08-10T05:04:35.214Z,2.60
2018-08-10T05:07:07.490Z,2.43
2018-08-10T05:09:35.870Z,2.30
2018-08-10T05:12:03.919Z,2.33
2018-08-10T05:14:34.911Z,2.13
2018-08-10T05:17:03.260Z,2.17
2018-08-10T05:19:31.822Z,1.93
2018-08-10T05:22:03.864Z,1.87
2018-08-10T05:24:36.941Z,1.90
2018-08-10T05:27:14.998Z,1.93
2018-08-10T05:29:43.056Z,1.63
2018-08-10T05:32:13.881Z,1.90
2018-08-10T05:34:45.052Z,1.80
2018-08-10T05:37:15.890Z,1.50
2018-08-10T05:39:43.921Z,1.43
2018-08-10T05:42:12.223Z,1.40
2018-08-10T05:44:40.668Z,1.90
2018-08-10T05:47:08.986Z,1.80
2018-08-10T05:49:37.013Z,1.33
2018-08-10T05:52:12.247Z,1.53
2018-08-10T05:54:53.253Z,1.50
2018-08-10T05:57:21.327Z,1.40
2018-08-10T05:59:53.773Z,1.50
2018-08-10T06:02:24.659Z,1.70
2018-08-10T06:04:52.738Z,1.40
2018-08-10T06:07:28.987Z,1.43
2018-08-10T06:09:59.199Z,1.67
2018-08-10T06:12:27.445Z,1.50
2018-08-10T06:14:59.793Z,1.50
2018-08-10T06:17:30.783Z,1.30
2018-08-10T06:19:59.144Z,1.30
2018-08-10T06:22:27.237Z,1.30
2018-08-10T06:24:59.521Z,1.30
2018-08-10T06:27:29.582Z,1.43
2018-08-10T06:29:57.673Z,1.20
2018-08-10T06:32:32.214Z,1.00
2018-08-10T06:35:06.504Z,1.70
2018-08-10T06:37:37.385Z,1.40
2018-08-10T06:40:05.990Z,1.17
2018-08-10T06:42:34.148Z,1.47
2018-08-10T06:45:06.673Z,1.33
2018-08-10T06:47:47.074Z,1.37
2018-08-10T06:50:17.964Z,1.20
2018-08-10T06:52:46.086Z,1.13
2018-08-10T06:55:19.206Z,1.20
2018-08-10T06:57:50.091Z,1.30
2018-08-10T07:00:18.162Z,1.50
2018-08-10T07:02:54.285Z,1.50
2018-08-10T07:05:25.464Z,1.50
2018-08-10T07:07:53.617Z,1.53
2018-08-10T07:10:30.441Z,1.63
2018-08-10T07:12:58.644Z,1.50
2018-08-10T07:15:29.636Z,1.50
2018-08-10T07:17:57.888Z,1.50
2018-08-10T07:20:25.973Z,1.50
2018-08-10T07:22:59.158Z,1.50
2018-08-10T07:25:29.404Z,1.17
2018-08-10T07:27:57.534Z,1.27
2018-08-10T07:30:28.608Z,1.50
2018-08-10T07:32:56.745Z,1.50
2018-08-10T07:35:24.949Z,1.53
2018-08-10T07:38:05.511Z,1.70
2018-08-10T07:40:36.665Z,1.43
2018-08-10T07:43:17.246Z,1.30
2018-08-10T07:45:55.206Z,1.50
2018-08-10T07:48:23.442Z,1.50
2018-08-10T07:50:51.449Z,1.33
2018-08-10T07:53:21.594Z,1.60
2018-08-10T07:55:49.634Z,1.30
2018-08-10T07:58:20.608Z,1.27
2018-08-10T08:00:48.676Z,1.30
2018-08-10T08:03:22.118Z,1.37
2018-08-10T08:06:04.026Z,1.20
2018-08-10T08:08:34.314Z,1.80
2018-08-10T08:11:02.665Z,1.40
2018-08-10T08:13:31.183Z,1.50
2018-08-10T08:15:59.188Z,1.30
2018-08-10T08:18:29.421Z,1.20
2018-08-10T08:21:11.858Z,1.27
2018-08-10T08:23:40.019Z,1.40
2018-08-10T08:26:10.377Z,1.40
2018-08-10T08:28:53.918Z,1.20
2018-08-10T08:31:21.956Z,1.50
2018-08-10T08:34:01.377Z,1.30
2018-08-10T08:36:32.318Z,1.10
2018-08-10T08:41:17.079Z,1.27
2018-08-10T08:46:01.501Z,1.50
2018-08-10T08:48:38.673Z,1.10
2018-08-10T08:51:18.388Z,1.93
2018-08-10T08:53:46.552Z,1.40
2018-08-10T08:56:19.577Z,1.70
2018-08-10T08:58:49.088Z,1.40
2018-08-10T09:01:17.588Z,1.30
2018-08-10T09:05:03.986Z,1.30
2018-08-10T09:07:32.338Z,1.80
2018-08-10T09:10:01.799Z,1.40
2018-08-10T09:15:10.957Z,1.30
2018-08-10T09:17:39.075Z,1.47
2018-08-10T09:20:12.872Z,1.40
2018-08-10T09:22:40.958Z,1.40
2018-08-10T09:25:19.922Z,1.97
2018-08-10T09:27:48.110Z,1.40
2018-08-10T09:30:20.874Z,1.40
2018-08-10T09:32:49.196Z,1.70
2018-08-10T09:35:17.561Z,1.70
2018-08-10T09:37:49.863Z,1.27
2018-08-10T09:40:22.139Z,1.70
2018-08-10T09:42:50.410Z,2.37
2018-08-10T09:45:19.176Z,1.70
2018-08-10T09:47:53.525Z,1.87
2018-08-10T09:50:34.854Z,1.90
2018-08-10T09:53:14.723Z,1.60
2018-08-10T09:55:54.426Z,1.90
2018-08-10T09:58:22.943Z,1.70
2018-08-10T10:00:59.456Z,2.10
2018-08-10T10:03:39.561Z,1.73
2018-08-10T10:06:07.724Z,1.77
2018-08-10T10:08:39.822Z,1.70
2018-08-10T10:11:09.914Z,1.50
2018-08-10T10:13:38.108Z,1.63
2018-08-10T10:16:09.027Z,1.40
2018-08-10T10:18:37.106Z,1.50
2018-08-10T10:21:07.966Z,1.60
2018-08-10T10:23:36.020Z,1.50
2018-08-10T10:26:12.066Z,1.50
2018-08-10T10:28:40.237Z,1.60
2018-08-10T10:31:12.531Z,1.63
2018-08-10T10:33:45.545Z,1.70
2018-08-10T10:36:13.799Z,1.50
2018-08-10T10:38:41.829Z,1.57
2018-08-10T10:41:15.017Z,1.73
2018-08-10T10:43:43.507Z,1.50
2018-08-10T10:46:11.768Z,1.33
2018-08-10T10:48:39.981Z,1.30
2018-08-10T10:51:11.070Z,1.50
2018-08-10T10:53:51.779Z,1.43
2018-08-10T10:56:26.246Z,1.60
2018-08-10T10:58:57.365Z,1.47
2018-08-10T11:01:28.379Z,1.80
2018-08-10T11:03:59.446Z,1.50
2018-08-10T11:06:31.546Z,1.90
2018-08-10T11:08:59.682Z,1.40
2018-08-10T11:11:34.065Z,1.87
2018-08-10T11:14:08.495Z,1.80
2018-08-10T11:16:42.920Z,1.50
2018-08-10T11:19:22.721Z,1.70
2018-08-10T11:21:50.810Z,1.50
2018-08-10T11:24:25.377Z,1.40
2018-08-10T11:27:02.013Z,1.60
2018-08-10T11:29:30.211Z,1.27
2018-08-10T11:32:03.304Z,1.50
2018-08-10T11:34:33.393Z,1.60
2018-08-10T11:37:01.706Z,1.30
2018-08-10T11:39:37.077Z,1.50
2018-08-10T11:42:07.861Z,1.60
2018-08-10T11:44:35.924Z,1.63
2018-08-10T11:47:08.165Z,1.60
2018-08-10T11:49:42.241Z,1.57
2018-08-10T11:52:10.334Z,1.60
2018-08-10T11:54:41.222Z,1.77
2018-08-10T11:57:09.418Z,1.90
2018-08-10T11:59:43.937Z,1.60
2018-08-10T12:02:14.915Z,1.40
2018-08-10T12:04:45.318Z,1.60
2018-08-10T12:07:13.480Z,1.97
2018-08-10T12:09:44.422Z,1.80
2018-08-10T12:12:14.885Z,1.50
2018-08-10T12:14:45.247Z,1.80
2018-08-10T12:17:13.318Z,2.20
2018-08-10T12:19:47.768Z,1.97
2018-08-10T12:22:29.512Z,1.73
2018-08-10T12:24:57.659Z,2.23
2018-08-10T12:27:34.544Z,1.60
2018-08-10T12:30:13.565Z,1.60
2018-08-10T12:32:46.870Z,1.40
2018-08-10T12:35:21.445Z,1.70
2018-08-10T12:37:53.781Z,1.90
2018-08-10T12:40:24.878Z,1.60
2018-08-10T12:42:54.935Z,1.63
2018-08-10T12:45:23.134Z,1.80
2018-08-10T12:47:57.443Z,1.80
2018-08-10T12:50:29.730Z,1.80
2018-08-10T12:53:00.989Z,1.60
2018-08-10T12:55:29.318Z,1.60
2018-08-10T12:57:57.442Z,1.73
2018-08-10T13:00:30.550Z,2.27
2018-08-10T13:03:01.222Z,1.73
2018-08-10T13:05:32.166Z,1.83
2018-08-10T13:08:10.861Z,1.90
2018-08-10T13:10:39.245Z,1.77
2018-08-10T13:13:07.440Z,1.87
2018-08-10T13:15:38.467Z,1.67
2018-08-10T13:18:08.606Z,1.83
2018-08-10T13:20:36.809Z,2.10
2018-08-10T13:23:12.152Z,1.53
2018-08-10T13:25:45.535Z,1.97
2018-08-10T13:28:18.891Z,1.83
2018-08-10T13:30:58.881Z,1.50
2018-08-10T13:33:27.017Z,1.30
2018-08-10T13:36:06.733Z,1.50
2018-08-10T13:38:34.948Z,1.77
2018-08-10T13:41:10.705Z,1.40
2018-08-10T13:43:38.924Z,1.67
2018-08-10T13:46:11.780Z,1.27
2018-08-10T13:48:39.840Z,1.70
2018-08-10T13:51:14.337Z,1.57
2018-08-10T13:53:48.680Z,1.40
2018-08-10T13:56:28.413Z,1.30
2018-08-10T13:58:56.608Z,1.10
2018-08-10T14:01:31.125Z,1.20
2018-08-10T14:04:06.352Z,1.23
2018-08-10T14:06:39.570Z,1.10
2018-08-10T14:09:13.875Z,1.20
2018-08-10T14:11:42.145Z,1.73
2018-08-10T14:14:10.209Z,1.33
2018-08-10T14:16:44.400Z,1.37
2018-08-10T14:19:15.192Z,1.23
2018-08-10T14:21:55.513Z,1.47
2018-08-10T14:24:26.799Z,1.53
2018-08-10T14:26:56.849Z,1.27
2018-08-10T14:29:28.106Z,1.17
2018-08-10T14:32:03.367Z,1.37
2018-08-10T14:34:37.418Z,1.10
2018-08-10T14:37:05.431Z,1.10
2018-08-10T14:39:40.821Z,1.37
2018-08-10T14:42:15.553Z,1.40
2018-08-10T14:44:45.850Z,1.33
2018-08-10T14:47:24.090Z,1.17
2018-08-10T14:49:56.500Z,0.97
2018-08-10T14:52:32.461Z,1.20
2018-08-10T14:55:00.649Z,1.20
2018-08-10T14:57:34.936Z,1.10
2018-08-10T15:00:07.150Z,1.50
2018-08-10T15:02:35.697Z,1.27
2018-08-10T15:05:10.542Z,0.90
2018-08-10T15:07:44.820Z,1.20
2018-08-10T15:10:17.986Z,1.77
2018-08-10T15:12:57.335Z,1.00
2018-08-10T15:15:25.280Z,1.53
2018-08-10T15:17:58.500Z,1.20
2018-08-10T15:20:39.561Z,1.37
2018-08-10T15:23:07.675Z,1.20
2018-08-10T15:25:42.332Z,1.20
2018-08-10T15:28:10.392Z,0.70
2018-08-10T15:30:43.830Z,1.33
2018-08-10T15:33:24.114Z,1.00
2018-08-10T15:35:55.201Z,1.03
2018-08-10T15:38:23.266Z,0.90
2018-08-10T15:40:55.657Z,1.07
2018-08-10T15:46:08.605Z,1.40
2018-08-10T15:48:43.926Z,0.90
2018-08-10T15:51:17.043Z,1.23
2018-08-10T15:53:45.185Z,0.97
2018-08-10T15:56:19.599Z,1.17
2018-08-10T15:58:52.505Z,1.30
2018-08-10T16:01:20.771Z,1.07
2018-08-10T16:03:48.966Z,1.10
2018-08-10T16:06:21.997Z,0.97
2018-08-10T16:08:54.407Z,0.70
2018-08-10T16:11:22.664Z,1.30
2018-08-10T16:13:50.868Z,0.90
2018-08-10T16:16:25.310Z,1.33
2018-08-10T16:18:56.089Z,1.20
2018-08-10T16:21:24.237Z,1.10
2018-08-10T16:23:58.801Z,1.20
2018-08-10T16:26:34.171Z,1.10
2018-08-10T16:29:08.534Z,1.20
2018-08-10T16:31:39.427Z,1.20
2018-08-10T16:34:07.920Z,1.30
2018-08-10T16:36:35.994Z,1.40
2018-08-10T16:39:17.715Z,1.10
2018-08-10T16:41:45.842Z,1.37
2018-08-10T16:44:16.011Z,1.37
2018-08-10T16:46:44.170Z,1.03
2018-08-10T16:49:18.635Z,1.00
2018-08-10T16:51:46.737Z,1.30
2018-08-10T16:54:19.157Z,1.10
2018-08-10T16:56:50.354Z,1.10
2018-08-10T16:59:20.765Z,1.13
2018-08-10T17:01:48.785Z,1.00
2018-08-10T17:04:23.440Z,1.33
2018-08-10T17:06:55.665Z,1.20
2018-08-10T17:09:26.645Z,1.33
2018-08-10T17:11:54.701Z,1.23
2018-08-10T17:14:30.597Z,1.37
2018-08-10T17:16:58.647Z,1.10
2018-08-10T17:19:33.165Z,1.30
2018-08-10T17:22:07.713Z,1.10
2018-08-10T17:24:40.934Z,1.17
2018-08-10T17:27:11.921Z,1.10
2018-08-10T17:29:40.143Z,0.80
2018-08-10T17:32:14.488Z,1.40
2018-08-10T17:34:47.378Z,1.73
2018-08-10T17:37:15.793Z,1.13
2018-08-10T17:39:43.924Z,1.13
2018-08-10T17:42:19.774Z,1.70
2018-08-10T17:44:48.078Z,1.20
2018-08-10T17:47:16.147Z,1.50
2018-08-10T17:49:47.395Z,1.23
2018-08-10T17:52:17.506Z,1.20
2018-08-10T17:54:45.709Z,1.27
2018-08-10T17:57:25.385Z,1.10
2018-08-10T17:59:53.593Z,1.40
2018-08-10T18:02:28.153Z,1.13
2018-08-10T18:07:35.843Z,1.00
2018-08-10T18:10:15.669Z,1.40
2018-08-10T18:12:46.612Z,1.20
2018-08-10T18:15:20.022Z,1.43
2018-08-10T18:17:53.297Z,1.57
2018-08-10T18:20:23.497Z,1.60
2018-08-10T18:22:52.518Z,1.30
2018-08-10T18:25:21.540Z,1.53
2018-08-10T18:27:49.681Z,1.40
2018-08-10T18:30:22.189Z,1.13
2018-08-10T18:32:58.673Z,1.43
2018-08-10T18:35:39.054Z,1.40
2018-08-10T18:38:11.947Z,1.30
2018-08-10T18:40:42.180Z,1.47
2018-08-10T18:43:10.401Z,1.40
2018-08-10T18:45:53.172Z,1.03
2018-08-10T18:48:21.590Z,1.20
2018-08-10T18:50:49.644Z,1.30
2018-08-10T18:53:23.961Z,1.37
2018-08-10T18:55:58.463Z,1.30
2018-08-10T18:58:31.674Z,1.50
2018-08-10T19:01:04.384Z,1.57
2018-08-10T19:03:44.237Z,1.63
2018-08-10T19:06:12.267Z,1.20
2018-08-10T19:08:44.669Z,1.37
2018-08-10T19:11:20.733Z,1.20
2018-08-10T19:13:48.977Z,1.30
2018-08-10T19:16:26.918Z,1.30
2018-08-10T19:18:57.898Z,1.20
2018-08-10T19:21:31.084Z,1.13
2018-08-10T19:24:01.944Z,1.17
2018-08-10T19:26:30.053Z,1.23
2018-08-10T19:29:04.653Z,1.43
2018-08-10T19:31:41.406Z,1.43
2018-08-10T19:34:09.725Z,1.20
2018-08-10T19:36:37.752Z,1.30
2018-08-10T19:39:08.270Z,1.73
2018-08-10T19:41:41.391Z,1.30
2018-08-10T19:44:09.478Z,1.60
2018-08-10T19:46:40.602Z,1.50
2018-08-10T19:49:18.983Z,1.50
2018-08-10T19:51:57.321Z,1.23
2018-08-10T19:54:27.456Z,1.80
2018-08-10T19:56:55.528Z,1.30
2018-08-10T19:59:26.450Z,1.33
2018-08-10T20:01:54.652Z,1.60
2018-08-10T20:04:28.976Z,1.40
2018-08-10T20:06:59.809Z,1.47
2018-08-10T20:09:27.972Z,1.20
2018-08-10T20:12:02.291Z,1.43
2018-08-10T20:14:35.417Z,1.27
2018-08-10T20:17:14.228Z,1.57
2018-08-10T20:19:53.955Z,1.20
2018-08-10T20:22:28.287Z,1.53
2018-08-10T20:25:00.913Z,1.20
2018-08-10T20:27:28.973Z,1.40
2018-08-10T20:30:04.500Z,1.60
2018-08-10T20:32:46.470Z,1.60
2018-08-10T20:35:16.080Z,1.90
2018-08-10T20:37:48.771Z,1.37
2018-08-10T20:40:20.184Z,1.37
2018-08-10T20:42:53.303Z,1.70
2018-08-10T20:45:23.506Z,1.50
2018-08-10T20:47:53.530Z,1.67
2018-08-10T20:50:33.960Z,1.50
2018-08-10T20:53:13.607Z,1.50
2018-08-10T20:55:48.359Z,1.47
2018-08-10T20:58:16.401Z,1.40
2018-08-10T21:00:49.579Z,1.80
2018-08-10T21:03:20.039Z,1.57
2018-08-10T21:05:48.411Z,1.80
2018-08-10T21:08:16.478Z,1.30
2018-08-10T21:10:52.384Z,1.70
2018-08-10T21:13:20.917Z,1.40
2018-08-10T21:15:55.502Z,1.40
2018-08-10T21:18:35.296Z,1.60
2018-08-10T21:21:11.851Z,1.40
2018-08-10T21:23:39.949Z,1.40
2018-08-10T21:26:22.018Z,1.27
2018-08-10T21:28:50.319Z,1.30
2018-08-10T21:31:18.346Z,1.40
2018-08-10T21:33:49.240Z,1.30
2018-08-10T21:36:17.373Z,1.30
2018-08-10T21:38:57.090Z,1.13
2018-08-10T21:41:25.194Z,1.67
2018-08-10T21:43:57.433Z,1.23
2018-08-10T21:46:28.606Z,1.30
2018-08-10T21:48:56.732Z,1.77
2018-08-10T21:54:04.708Z,1.40
2018-08-10T21:56:38.927Z,1.27
2018-08-10T21:59:19.279Z,1.40
2018-08-10T22:01:49.638Z,1.37
2018-08-10T22:04:19.898Z,1.37
2018-08-10T22:06:48.090Z,1.80
2018-08-10T22:09:22.439Z,1.50
2018-08-10T22:11:55.407Z,1.47
2018-08-10T22:14:29.047Z,1.73
2018-08-10T22:17:12.133Z,1.33
2018-08-10T22:19:40.316Z,1.30
2018-08-10T22:22:11.225Z,1.57
2018-08-10T22:24:39.648Z,1.30
2018-08-10T22:27:07.788Z,1.50
2018-08-10T22:29:38.113Z,1.50
2018-08-10T22:32:09.099Z,1.30
2018-08-10T22:34:37.497Z,1.23
2018-08-10T22:37:05.770Z,1.40
2018-08-10T22:39:39.008Z,1.70
2018-08-10T22:42:18.641Z,1.50
2018-08-10T22:44:51.254Z,1.30
2018-08-10T22:47:19.372Z,1.20
2018-08-10T22:49:50.304Z,1.50
2018-08-10T22:52:18.316Z,1.50
2018-08-10T22:54:49.406Z,1.30
2018-08-10T22:57:17.756Z,1.40
2018-08-10T22:59:45.864Z,1.10
2018-08-10T23:02:21.825Z,1.97
2018-08-10T23:04:50.107Z,1.40
2018-08-10T23:07:18.205Z,1.47
2018-08-10T23:09:50.597Z,1.47
2018-08-10T23:12:24.629Z,1.63
2018-08-10T23:14:52.869Z,1.20
2018-08-10T23:17:25.901Z,1.23
2018-08-10T23:19:56.284Z,2.03
2018-08-10T23:22:26.661Z,1.07
2018-08-10T23:24:54.977Z,1.20
2018-08-10T23:27:23.153Z,1.50
2018-08-10T23:29:58.270Z,1.30
2018-08-10T23:32:38.153Z,1.30
2018-08-10T23:35:10.392Z,1.40
2018-08-10T23:37:43.481Z,1.10
2018-08-10T23:40:18.304Z,1.30
2018-08-10T23:42:49.262Z,1.47
2018-08-10T23:45:17.555Z,1.30
2018-08-10T23:47:45.892Z,1.20
2018-08-10T23:50:17.273Z,1.40
2018-08-10T23:52:50.161Z,1.20
2018-08-10T23:55:30.453Z,1.60
2018-08-10T23:57:59.600Z,1.30
